New Haven, Wyoming
Current Conditions -  °F | °C
As of 5:55 PM on Monday 26 Jan 2015 (Local Time) from KSPF Reporting Station
Clear Clear  
Wind Chill: 55°   Ceiling: Unl
Heat Index: 55°   Visibility: 10mi
Dew Point: 27°   Wind: 9mph
Humidity: 33%   Direction: 280°W
Pressure: 30.01"   Gusts: NA
Location:  44.835°N, 104.693°W
Report Text: KSPF 270055Z AUTO 28008KT 10SM CLR 13/M03 A3001 RMK AO2
Loading
Personal Weather Stations






























Interactive Weather Map New forecast layout! Learn more

10-Day Weather Forecast

Advertisements
Track Severe Weather on mobile